sensor_id;sensor_type;location;lat;lon;timestamp;P1;durP1;ratioP1;P2;durP2;ratioP2
53269;SDS011;39159;45.634;9.420;2023-05-15T00:01:12;10.57;;;6.90;;
53269;SDS011;39159;45.634;9.420;2023-05-15T00:03:38;7.75;;;5.90;;
53269;SDS011;39159;45.634;9.420;2023-05-15T00:06:03;7.85;;;5.80;;
53269;SDS011;39159;45.634;9.420;2023-05-15T00:08:29;7.57;;;5.50;;
53269;SDS011;39159;45.634;9.420;2023-05-15T00:10:55;8.48;;;7.20;;
53269;SDS011;39159;45.634;9.420;2023-05-15T00:13:21;10.48;;;7.28;;
53269;SDS011;39159;45.634;9.420;2023-05-15T00:15:46;10.48;;;8.23;;
53269;SDS011;39159;45.634;9.420;2023-05-15T00:18:12;10.18;;;7.97;;
53269;SDS011;39159;45.634;9.420;2023-05-15T00:20:37;11.15;;;8.88;;
53269;SDS011;39159;45.634;9.420;2023-05-15T00:23:03;14.07;;;9.40;;
53269;SDS011;39159;45.634;9.420;2023-05-15T00:25:28;10.20;;;8.23;;
53269;SDS011;39159;45.634;9.420;2023-05-15T00:27:53;11.38;;;8.55;;
53269;SDS011;39159;45.634;9.420;2023-05-15T00:30:19;11.60;;;8.57;;
53269;SDS011;39159;45.634;9.420;2023-05-15T00:32:44;12.70;;;8.98;;
53269;SDS011;39159;45.634;9.420;2023-05-15T00:35:10;11.45;;;8.68;;
53269;SDS011;39159;45.634;9.420;2023-05-15T00:37:35;13.68;;;11.20;;
53269;SDS011;39159;45.634;9.420;2023-05-15T00:40:01;11.27;;;9.40;;
53269;SDS011;39159;45.634;9.420;2023-05-15T00:42:26;13.35;;;9.10;;
53269;SDS011;39159;45.634;9.420;2023-05-15T00:44:53;13.52;;;8.38;;
53269;SDS011;39159;45.634;9.420;2023-05-15T00:47:20;11.98;;;8.93;;
53269;SDS011;39159;45.634;9.420;2023-05-15T00:49:48;12.45;;;9.15;;
53269;SDS011;39159;45.634;9.420;2023-05-15T00:52:15;12.70;;;9.27;;
53269;SDS011;39159;45.634;9.420;2023-05-15T00:54:41;17.65;;;10.13;;
53269;SDS011;39159;45.634;9.420;2023-05-15T00:57:07;13.55;;;10.02;;
53269;SDS011;39159;45.634;9.420;2023-05-15T00:59:33;12.30;;;8.98;;
53269;SDS011;39159;45.634;9.420;2023-05-15T01:02:00;13.75;;;9.02;;
53269;SDS011;39159;45.634;9.420;2023-05-15T01:04:26;11.15;;;7.97;;
53269;SDS011;39159;45.634;9.420;2023-05-15T01:06:51;11.13;;;8.15;;
53269;SDS011;39159;45.634;9.420;2023-05-15T01:09:22;13.45;;;7.22;;
53269;SDS011;39159;45.634;9.420;2023-05-15T01:11:49;9.80;;;7.75;;
53269;SDS011;39159;45.634;9.420;2023-05-15T01:14:18;11.57;;;7.65;;
53269;SDS011;39159;45.634;9.420;2023-05-15T01:16:44;9.15;;;7.32;;
53269;SDS011;39159;45.634;9.420;2023-05-15T01:19:10;9.65;;;7.32;;
53269;SDS011;39159;45.634;9.420;2023-05-15T01:32:13;8.43;;;6.70;;
53269;SDS011;39159;45.634;9.420;2023-05-15T01:35:00;10.45;;;7.70;;
53269;SDS011;39159;45.634;9.420;2023-05-15T01:37:40;11.70;;;9.07;;
53269;SDS011;39159;45.634;9.420;2023-05-15T01:40:11;11.52;;;9.15;;
53269;SDS011;39159;45.634;9.420;2023-05-15T01:42:41;15.82;;;11.15;;
53269;SDS011;39159;45.634;9.420;2023-05-15T01:45:14;20.00;;;11.60;;
53269;SDS011;39159;45.634;9.420;2023-05-15T01:47:42;14.38;;;9.20;;
53269;SDS011;39159;45.634;9.420;2023-05-15T01:50:11;9.60;;;7.78;;
53269;SDS011;39159;45.634;9.420;2023-05-15T01:52:40;11.55;;;8.45;;
53269;SDS011;39159;45.634;9.420;2023-05-15T01:55:09;9.90;;;7.25;;
53269;SDS011;39159;45.634;9.420;2023-05-15T01:57:35;12.32;;;7.68;;
53269;SDS011;39159;45.634;9.420;2023-05-15T02:00:01;10.52;;;7.20;;
53269;SDS011;39159;45.634;9.420;2023-05-15T02:02:28;11.00;;;6.78;;
53269;SDS011;39159;45.634;9.420;2023-05-15T02:04:55;9.32;;;7.30;;
53269;SDS011;39159;45.634;9.420;2023-05-15T02:07:21;10.75;;;7.40;;
53269;SDS011;39159;45.634;9.420;2023-05-15T02:09:48;8.88;;;7.00;;
53269;SDS011;39159;45.634;9.420;2023-05-15T02:12:15;10.40;;;7.25;;
53269;SDS011;39159;45.634;9.420;2023-05-15T02:14:42;8.70;;;6.68;;
53269;SDS011;39159;45.634;9.420;2023-05-15T02:17:09;11.43;;;7.10;;
53269;SDS011;39159;45.634;9.420;2023-05-15T02:19:35;11.23;;;7.38;;
53269;SDS011;39159;45.634;9.420;2023-05-15T02:22:00;9.05;;;6.82;;
53269;SDS011;39159;45.634;9.420;2023-05-15T02:24:26;8.02;;;6.13;;
53269;SDS011;39159;45.634;9.420;2023-05-15T02:27:07;9.25;;;5.80;;
53269;SDS011;39159;45.634;9.420;2023-05-15T02:35:35;9.05;;;5.18;;
53269;SDS011;39159;45.634;9.420;2023-05-15T02:38:08;7.80;;;4.40;;
53269;SDS011;39159;45.634;9.420;2023-05-15T02:40:39;5.40;;;4.60;;
53269;SDS011;39159;45.634;9.420;2023-05-15T02:43:07;6.05;;;4.63;;
53269;SDS011;39159;45.634;9.420;2023-05-15T02:45:34;5.35;;;4.20;;
53269;SDS011;39159;45.634;9.420;2023-05-15T02:48:01;4.53;;;3.80;;
53269;SDS011;39159;45.634;9.420;2023-05-15T02:50:27;4.50;;;3.70;;
53269;SDS011;39159;45.634;9.420;2023-05-15T02:53:05;6.65;;;4.00;;
53269;SDS011;39159;45.634;9.420;2023-05-15T02:55:33;5.68;;;4.45;;
53269;SDS011;39159;45.634;9.420;2023-05-15T02:57:58;6.35;;;4.40;;
53269;SDS011;39159;45.634;9.420;2023-05-15T03:00:24;6.93;;;4.57;;
53269;SDS011;39159;45.634;9.420;2023-05-15T03:02:50;5.88;;;4.80;;
53269;SDS011;39159;45.634;9.420;2023-05-15T03:05:15;8.55;;;5.22;;
53269;SDS011;39159;45.634;9.420;2023-05-15T03:07:40;7.97;;;5.32;;
53269;SDS011;39159;45.634;9.420;2023-05-15T03:10:06;7.28;;;5.40;;
53269;SDS011;39159;45.634;9.420;2023-05-15T03:12:32;8.95;;;5.65;;
53269;SDS011;39159;45.634;9.420;2023-05-15T03:14:58;7.38;;;5.38;;
53269;SDS011;39159;45.634;9.420;2023-05-15T03:17:23;9.77;;;6.38;;
53269;SDS011;39159;45.634;9.420;2023-05-15T03:19:49;8.25;;;5.47;;
53269;SDS011;39159;45.634;9.420;2023-05-15T03:22:14;8.80;;;5.55;;
53269;SDS011;39159;45.634;9.420;2023-05-15T03:24:40;9.80;;;6.68;;
53269;SDS011;39159;45.634;9.420;2023-05-15T03:27:05;12.93;;;6.68;;
53269;SDS011;39159;45.634;9.420;2023-05-15T03:29:31;11.73;;;6.85;;
53269;SDS011;39159;45.634;9.420;2023-05-15T03:31:56;10.20;;;6.13;;
53269;SDS011;39159;45.634;9.420;2023-05-15T03:34:22;8.00;;;5.95;;
53269;SDS011;39159;45.634;9.420;2023-05-15T03:36:47;13.32;;;8.40;;
53269;SDS011;39159;45.634;9.420;2023-05-15T03:39:13;14.45;;;8.93;;
53269;SDS011;39159;45.634;9.420;2023-05-15T03:41:38;13.82;;;9.75;;
53269;SDS011;39159;45.634;9.420;2023-05-15T03:44:04;13.68;;;10.13;;
53269;SDS011;39159;45.634;9.420;2023-05-15T03:46:29;14.52;;;10.13;;
53269;SDS011;39159;45.634;9.420;2023-05-15T03:48:55;14.85;;;10.40;;
53269;SDS011;39159;45.634;9.420;2023-05-15T03:51:21;16.58;;;11.80;;
53269;SDS011;39159;45.634;9.420;2023-05-15T03:53:47;21.55;;;15.85;;
53269;SDS011;39159;45.634;9.420;2023-05-15T03:56:13;14.45;;;10.55;;
53269;SDS011;39159;45.634;9.420;2023-05-15T03:58:39;14.75;;;10.90;;
53269;SDS011;39159;45.634;9.420;2023-05-15T04:01:05;15.38;;;10.48;;
53269;SDS011;39159;45.634;9.420;2023-05-15T04:03:31;16.67;;;11.57;;
53269;SDS011;39159;45.634;9.420;2023-05-15T04:05:57;19.02;;;12.77;;
53269;SDS011;39159;45.634;9.420;2023-05-15T04:08:23;20.35;;;14.43;;
53269;SDS011;39159;45.634;9.420;2023-05-15T04:10:48;25.65;;;18.20;;
53269;SDS011;39159;45.634;9.420;2023-05-15T04:13:14;50.75;;;33.97;;
53269;SDS011;39159;45.634;9.420;2023-05-15T04:15:40;38.17;;;25.92;;
53269;SDS011;39159;45.634;9.420;2023-05-15T04:18:06;29.70;;;19.80;;
53269;SDS011;39159;45.634;9.420;2023-05-15T04:20:31;27.20;;;17.67;;
53269;SDS011;39159;45.634;9.420;2023-05-15T04:22:57;20.50;;;13.95;;
53269;SDS011;39159;45.634;9.420;2023-05-15T04:25:23;23.60;;;18.50;;
53269;SDS011;39159;45.634;9.420;2023-05-15T04:27:48;29.33;;;22.40;;
53269;SDS011;39159;45.634;9.420;2023-05-15T04:30:14;28.52;;;21.17;;
53269;SDS011;39159;45.634;9.420;2023-05-15T04:32:40;28.73;;;19.58;;
53269;SDS011;39159;45.634;9.420;2023-05-15T04:35:06;24.02;;;17.27;;
53269;SDS011;39159;45.634;9.420;2023-05-15T04:37:37;19.17;;;15.32;;
53269;SDS011;39159;45.634;9.420;2023-05-15T04:40:04;12.48;;;8.43;;
53269;SDS011;39159;45.634;9.420;2023-05-15T04:42:31;10.88;;;7.00;;
53269;SDS011;39159;45.634;9.420;2023-05-15T04:44:56;11.07;;;7.40;;
53269;SDS011;39159;45.634;9.420;2023-05-15T04:47:22;9.88;;;6.47;;
53269;SDS011;39159;45.634;9.420;2023-05-15T04:49:47;11.02;;;6.50;;
53269;SDS011;39159;45.634;9.420;2023-05-15T04:52:14;8.82;;;6.13;;
53269;SDS011;39159;45.634;9.420;2023-05-15T04:54:40;8.15;;;6.10;;
53269;SDS011;39159;45.634;9.420;2023-05-15T04:57:06;10.35;;;5.72;;
53269;SDS011;39159;45.634;9.420;2023-05-15T04:59:31;7.82;;;5.13;;
53269;SDS011;39159;45.634;9.420;2023-05-15T05:01:57;6.32;;;4.85;;
53269;SDS011;39159;45.634;9.420;2023-05-15T05:04:23;7.25;;;5.13;;
53269;SDS011;39159;45.634;9.420;2023-05-15T05:06:49;5.68;;;4.72;;
53269;SDS011;39159;45.634;9.420;2023-05-15T05:09:14;6.30;;;4.15;;
53269;SDS011;39159;45.634;9.420;2023-05-15T05:11:43;8.23;;;5.03;;
53269;SDS011;39159;45.634;9.420;2023-05-15T05:14:11;6.60;;;4.50;;
53269;SDS011;39159;45.634;9.420;2023-05-15T05:16:38;4.90;;;3.78;;
53269;SDS011;39159;45.634;9.420;2023-05-15T05:19:04;5.28;;;4.38;;
53269;SDS011;39159;45.634;9.420;2023-05-15T05:21:31;5.80;;;3.55;;
53269;SDS011;39159;45.634;9.420;2023-05-15T05:23:57;5.13;;;3.72;;
53269;SDS011;39159;45.634;9.420;2023-05-15T05:26:23;5.25;;;3.72;;
53269;SDS011;39159;45.634;9.420;2023-05-15T05:28:49;7.05;;;4.88;;
53269;SDS011;39159;45.634;9.420;2023-05-15T05:31:14;13.07;;;6.68;;
53269;SDS011;39159;45.634;9.420;2023-05-15T05:33:40;7.25;;;5.43;;
53269;SDS011;39159;45.634;9.420;2023-05-15T05:36:06;9.07;;;6.00;;
53269;SDS011;39159;45.634;9.420;2023-05-15T05:38:32;8.80;;;4.88;;
53269;SDS011;39159;45.634;9.420;2023-05-15T05:40:57;9.30;;;4.68;;
53269;SDS011;39159;45.634;9.420;2023-05-15T05:43:25;10.20;;;5.40;;
53269;SDS011;39159;45.634;9.420;2023-05-15T05:45:50;10.75;;;5.03;;
53269;SDS011;39159;45.634;9.420;2023-05-15T05:48:16;7.45;;;5.07;;
53269;SDS011;39159;45.634;9.420;2023-05-15T05:50:42;13.25;;;5.30;;
53269;SDS011;39159;45.634;9.420;2023-05-15T05:53:07;8.32;;;4.90;;
53269;SDS011;39159;45.634;9.420;2023-05-15T05:55:33;10.23;;;4.97;;
53269;SDS011;39159;45.634;9.420;2023-05-15T05:57:58;7.05;;;4.07;;
53269;SDS011;39159;45.634;9.420;2023-05-15T06:00:24;6.07;;;3.25;;
53269;SDS011;39159;45.634;9.420;2023-05-15T06:02:54;6.53;;;4.15;;
53269;SDS011;39159;45.634;9.420;2023-05-15T06:05:23;7.97;;;3.63;;
53269;SDS011;39159;45.634;9.420;2023-05-15T06:07:50;9.10;;;3.90;;
53269;SDS011;39159;45.634;9.420;2023-05-15T06:10:16;6.72;;;3.28;;
53269;SDS011;39159;45.634;9.420;2023-05-15T06:12:43;6.32;;;3.05;;
53269;SDS011;39159;45.634;9.420;2023-05-15T06:15:09;5.15;;;3.03;;
53269;SDS011;39159;45.634;9.420;2023-05-15T06:17:35;3.85;;;3.17;;
53269;SDS011;39159;45.634;9.420;2023-05-15T06:20:00;6.50;;;3.08;;
53269;SDS011;39159;45.634;9.420;2023-05-15T06:22:26;14.45;;;4.47;;
53269;SDS011;39159;45.634;9.420;2023-05-15T06:24:52;6.95;;;3.78;;
53269;SDS011;39159;45.634;9.420;2023-05-15T06:27:17;6.47;;;3.72;;
53269;SDS011;39159;45.634;9.420;2023-05-15T06:29:43;8.30;;;4.20;;
53269;SDS011;39159;45.634;9.420;2023-05-15T06:32:08;4.57;;;3.33;;
53269;SDS011;39159;45.634;9.420;2023-05-15T06:34:34;3.78;;;3.00;;
53269;SDS011;39159;45.634;9.420;2023-05-15T06:36:59;6.35;;;3.15;;
53269;SDS011;39159;45.634;9.420;2023-05-15T06:39:25;4.90;;;2.72;;
53269;SDS011;39159;45.634;9.420;2023-05-15T06:41:50;3.75;;;2.38;;
53269;SDS011;39159;45.634;9.420;2023-05-15T06:44:22;4.43;;;2.67;;
53269;SDS011;39159;45.634;9.420;2023-05-15T06:46:47;4.22;;;2.47;;
53269;SDS011;39159;45.634;9.420;2023-05-15T06:49:13;4.25;;;2.60;;
53269;SDS011;39159;45.634;9.420;2023-05-15T06:51:38;4.75;;;2.70;;
53269;SDS011;39159;45.634;9.420;2023-05-15T06:54:04;4.85;;;2.40;;
53269;SDS011;39159;45.634;9.420;2023-05-15T06:56:29;7.55;;;3.63;;
53269;SDS011;39159;45.634;9.420;2023-05-15T06:58:55;7.50;;;2.85;;
53269;SDS011;39159;45.634;9.420;2023-05-15T07:01:20;5.88;;;2.60;;
53269;SDS011;39159;45.634;9.420;2023-05-15T07:03:46;4.30;;;2.40;;
53269;SDS011;39159;45.634;9.420;2023-05-15T07:06:11;3.35;;;2.47;;
53269;SDS011;39159;45.634;9.420;2023-05-15T07:08:36;3.47;;;2.00;;
53269;SDS011;39159;45.634;9.420;2023-05-15T07:11:02;6.38;;;2.22;;
53269;SDS011;39159;45.634;9.420;2023-05-15T07:13:28;4.22;;;2.80;;
53269;SDS011;39159;45.634;9.420;2023-05-15T07:15:53;5.55;;;1.88;;
53269;SDS011;39159;45.634;9.420;2023-05-15T07:18:19;2.53;;;2.08;;
53269;SDS011;39159;45.634;9.420;2023-05-15T07:20:44;2.00;;;1.73;;
53269;SDS011;39159;45.634;9.420;2023-05-15T07:23:09;2.40;;;1.95;;
53269;SDS011;39159;45.634;9.420;2023-05-15T07:25:35;3.88;;;1.70;;
53269;SDS011;39159;45.634;9.420;2023-05-15T07:28:01;4.97;;;2.30;;
53269;SDS011;39159;45.634;9.420;2023-05-15T07:30:26;7.20;;;1.83;;
53269;SDS011;39159;45.634;9.420;2023-05-15T07:32:52;3.08;;;2.30;;
53269;SDS011;39159;45.634;9.420;2023-05-15T07:35:17;2.28;;;1.90;;
53269;SDS011;39159;45.634;9.420;2023-05-15T07:37:43;4.80;;;2.42;;
53269;SDS011;39159;45.634;9.420;2023-05-15T07:40:10;3.20;;;2.30;;
53269;SDS011;39159;45.634;9.420;2023-05-15T07:42:36;3.85;;;1.92;;
53269;SDS011;39159;45.634;9.420;2023-05-15T07:45:01;4.13;;;1.80;;
53269;SDS011;39159;45.634;9.420;2023-05-15T07:47:27;3.97;;;1.90;;
53269;SDS011;39159;45.634;9.420;2023-05-15T07:49:52;3.80;;;1.90;;
53269;SDS011;39159;45.634;9.420;2023-05-15T07:52:18;3.72;;;2.15;;
53269;SDS011;39159;45.634;9.420;2023-05-15T07:54:43;3.35;;;2.25;;
53269;SDS011;39159;45.634;9.420;2023-05-15T07:57:09;3.90;;;2.40;;
53269;SDS011;39159;45.634;9.420;2023-05-15T07:59:34;3.63;;;2.55;;
53269;SDS011;39159;45.634;9.420;2023-05-15T08:02:00;3.15;;;2.00;;
53269;SDS011;39159;45.634;9.420;2023-05-15T08:04:26;4.38;;;2.40;;
53269;SDS011;39159;45.634;9.420;2023-05-15T08:06:51;3.60;;;2.13;;
53269;SDS011;39159;45.634;9.420;2023-05-15T08:09:17;3.33;;;2.47;;
53269;SDS011;39159;45.634;9.420;2023-05-15T08:11:43;4.18;;;2.17;;
53269;SDS011;39159;45.634;9.420;2023-05-15T08:14:08;4.07;;;2.28;;
53269;SDS011;39159;45.634;9.420;2023-05-15T08:16:34;4.32;;;2.92;;
53269;SDS011;39159;45.634;9.420;2023-05-15T08:18:59;3.55;;;2.20;;
53269;SDS011;39159;45.634;9.420;2023-05-15T08:21:28;3.83;;;2.00;;
53269;SDS011;39159;45.634;9.420;2023-05-15T08:23:55;3.97;;;2.45;;
53269;SDS011;39159;45.634;9.420;2023-05-15T08:26:21;3.80;;;2.60;;
53269;SDS011;39159;45.634;9.420;2023-05-15T08:28:47;3.88;;;2.80;;
53269;SDS011;39159;45.634;9.420;2023-05-15T08:31:12;3.15;;;2.20;;
53269;SDS011;39159;45.634;9.420;2023-05-15T08:33:38;4.85;;;2.28;;
53269;SDS011;39159;45.634;9.420;2023-05-15T08:36:04;3.00;;;2.40;;
53269;SDS011;39159;45.634;9.420;2023-05-15T08:38:29;4.00;;;2.88;;
53269;SDS011;39159;45.634;9.420;2023-05-15T08:40:56;2.70;;;2.22;;
53269;SDS011;39159;45.634;9.420;2023-05-15T08:43:23;9.65;;;2.53;;
53269;SDS011;39159;45.634;9.420;2023-05-15T08:45:51;4.47;;;2.38;;
53269;SDS011;39159;45.634;9.420;2023-05-15T08:48:18;6.25;;;3.03;;
53269;SDS011;39159;45.634;9.420;2023-05-15T08:50:45;4.35;;;2.80;;
53269;SDS011;39159;45.634;9.420;2023-05-15T08:53:11;5.00;;;2.60;;
53269;SDS011;39159;45.634;9.420;2023-05-15T08:55:37;4.10;;;2.53;;
53269;SDS011;39159;45.634;9.420;2023-05-15T08:58:04;3.30;;;2.88;;
53269;SDS011;39159;45.634;9.420;2023-05-15T09:00:30;4.43;;;2.80;;
53269;SDS011;39159;45.634;9.420;2023-05-15T09:02:57;3.65;;;3.25;;
53269;SDS011;39159;45.634;9.420;2023-05-15T09:05:25;4.88;;;3.28;;
53269;SDS011;39159;45.634;9.420;2023-05-15T09:07:55;4.25;;;3.13;;
53269;SDS011;39159;45.634;9.420;2023-05-15T09:10:21;5.10;;;3.55;;
53269;SDS011;39159;45.634;9.420;2023-05-15T09:12:47;7.32;;;3.97;;
53269;SDS011;39159;45.634;9.420;2023-05-15T09:15:15;10.52;;;4.28;;
53269;SDS011;39159;45.634;9.420;2023-05-15T09:17:44;4.45;;;3.15;;
53269;SDS011;39159;45.634;9.420;2023-05-15T09:20:29;4.30;;;3.72;;
53269;SDS011;39159;45.634;9.420;2023-05-15T09:22:56;4.70;;;3.92;;
53269;SDS011;39159;45.634;9.420;2023-05-15T09:25:39;6.72;;;4.30;;
53269;SDS011;39159;45.634;9.420;2023-05-15T09:28:27;6.05;;;3.90;;
53269;SDS011;39159;45.634;9.420;2023-05-15T09:30:56;7.72;;;3.50;;
53269;SDS011;39159;45.634;9.420;2023-05-15T09:33:41;5.55;;;3.85;;
53269;SDS011;39159;45.634;9.420;2023-05-15T09:36:07;6.45;;;4.35;;
53269;SDS011;39159;45.634;9.420;2023-05-15T09:38:40;8.82;;;4.53;;
53269;SDS011;39159;45.634;9.420;2023-05-15T09:41:07;5.35;;;3.75;;
53269;SDS011;39159;45.634;9.420;2023-05-15T09:43:37;5.45;;;3.60;;
53269;SDS011;39159;45.634;9.420;2023-05-15T09:46:04;9.57;;;3.70;;
53269;SDS011;39159;45.634;9.420;2023-05-15T09:48:33;6.35;;;3.70;;
53269;SDS011;39159;45.634;9.420;2023-05-15T09:50:59;4.97;;;3.78;;
53269;SDS011;39159;45.634;9.420;2023-05-15T09:53:25;5.55;;;3.63;;
53269;SDS011;39159;45.634;9.420;2023-05-15T09:55:52;6.28;;;4.38;;
53269;SDS011;39159;45.634;9.420;2023-05-15T09:58:18;5.07;;;3.85;;
53269;SDS011;39159;45.634;9.420;2023-05-15T10:00:44;5.15;;;3.80;;
53269;SDS011;39159;45.634;9.420;2023-05-15T10:03:11;5.20;;;4.13;;
53269;SDS011;39159;45.634;9.420;2023-05-15T10:05:38;3.80;;;3.17;;
53269;SDS011;39159;45.634;9.420;2023-05-15T10:08:04;5.95;;;4.00;;
53269;SDS011;39159;45.634;9.420;2023-05-15T10:10:30;5.57;;;4.35;;
53269;SDS011;39159;45.634;9.420;2023-05-15T10:12:57;5.32;;;3.38;;
53269;SDS011;39159;45.634;9.420;2023-05-15T10:15:25;7.10;;;4.55;;
53269;SDS011;39159;45.634;9.420;2023-05-15T10:17:52;5.07;;;3.22;;
53269;SDS011;39159;45.634;9.420;2023-05-15T10:20:18;4.45;;;3.47;;
53269;SDS011;39159;45.634;9.420;2023-05-15T10:22:46;6.47;;;3.92;;
53269;SDS011;39159;45.634;9.420;2023-05-15T10:25:20;5.65;;;4.45;;
53269;SDS011;39159;45.634;9.420;2023-05-15T10:27:52;5.22;;;3.92;;
53269;SDS011;39159;45.634;9.420;2023-05-15T10:30:18;5.00;;;4.07;;
53269;SDS011;39159;45.634;9.420;2023-05-15T10:32:45;6.57;;;5.28;;
53269;SDS011;39159;45.634;9.420;2023-05-15T10:35:12;7.90;;;4.60;;
53269;SDS011;39159;45.634;9.420;2023-05-15T10:37:39;5.88;;;4.00;;
53269;SDS011;39159;45.634;9.420;2023-05-15T10:40:08;7.28;;;4.70;;
53269;SDS011;39159;45.634;9.420;2023-05-15T10:42:35;7.15;;;4.72;;
53269;SDS011;39159;45.634;9.420;2023-05-15T10:45:02;5.40;;;4.43;;
53269;SDS011;39159;45.634;9.420;2023-05-15T10:47:29;6.10;;;4.32;;
53269;SDS011;39159;45.634;9.420;2023-05-15T10:49:56;7.18;;;4.45;;
53269;SDS011;39159;45.634;9.420;2023-05-15T10:52:22;6.38;;;5.00;;
53269;SDS011;39159;45.634;9.420;2023-05-15T10:54:48;5.07;;;4.57;;
53269;SDS011;39159;45.634;9.420;2023-05-15T10:57:14;5.82;;;4.90;;
53269;SDS011;39159;45.634;9.420;2023-05-15T10:59:40;6.88;;;5.47;;
53269;SDS011;39159;45.634;9.420;2023-05-15T11:04:45;4.88;;;3.80;;
53269;SDS011;39159;45.634;9.420;2023-05-15T11:07:11;5.28;;;4.78;;
53269;SDS011;39159;45.634;9.420;2023-05-15T11:09:38;6.22;;;4.78;;
53269;SDS011;39159;45.634;9.420;2023-05-15T11:12:05;9.05;;;4.88;;
53269;SDS011;39159;45.634;9.420;2023-05-15T11:17:03;7.78;;;5.57;;
53269;SDS011;39159;45.634;9.420;2023-05-15T11:19:31;8.00;;;6.25;;
53269;SDS011;39159;45.634;9.420;2023-05-15T11:21:58;6.47;;;5.85;;
53269;SDS011;39159;45.634;9.420;2023-05-15T11:27:23;6.55;;;4.45;;
53269;SDS011;39159;45.634;9.420;2023-05-15T11:30:07;9.70;;;4.93;;
53269;SDS011;39159;45.634;9.420;2023-05-15T11:40:31;7.00;;;5.78;;
53269;SDS011;39159;45.634;9.420;2023-05-15T11:43:20;5.25;;;4.57;;
53269;SDS011;39159;45.634;9.420;2023-05-15T11:45:50;6.88;;;4.10;;
53269;SDS011;39159;45.634;9.420;2023-05-15T11:48:23;4.30;;;3.58;;
53269;SDS011;39159;45.634;9.420;2023-05-15T11:50:55;7.88;;;4.05;;
53269;SDS011;39159;45.634;9.420;2023-05-15T11:53:20;6.32;;;4.93;;
53269;SDS011;39159;45.634;9.420;2023-05-15T11:55:48;7.53;;;4.90;;
53269;SDS011;39159;45.634;9.420;2023-05-15T11:58:16;7.07;;;4.57;;
53269;SDS011;39159;45.634;9.420;2023-05-15T12:00:43;5.20;;;4.70;;
53269;SDS011;39159;45.634;9.420;2023-05-15T12:03:30;6.25;;;4.82;;
53269;SDS011;39159;45.634;9.420;2023-05-15T12:05:57;4.35;;;3.50;;
53269;SDS011;39159;45.634;9.420;2023-05-15T12:08:25;4.45;;;3.65;;
53269;SDS011;39159;45.634;9.420;2023-05-15T12:10:56;6.68;;;4.93;;
53269;SDS011;39159;45.634;9.420;2023-05-15T12:13:23;4.82;;;3.00;;
53269;SDS011;39159;45.634;9.420;2023-05-15T12:15:48;4.68;;;3.83;;
53269;SDS011;39159;45.634;9.420;2023-05-15T12:18:14;4.70;;;4.20;;
53269;SDS011;39159;45.634;9.420;2023-05-15T12:20:40;4.03;;;3.63;;
53269;SDS011;39159;45.634;9.420;2023-05-15T12:23:15;4.20;;;3.80;;
53269;SDS011;39159;45.634;9.420;2023-05-15T12:25:42;7.60;;;4.80;;
53269;SDS011;39159;45.634;9.420;2023-05-15T12:28:09;8.68;;;4.57;;
53269;SDS011;39159;45.634;9.420;2023-05-15T12:30:36;5.18;;;3.60;;
53269;SDS011;39159;45.634;9.420;2023-05-15T12:33:03;3.88;;;3.47;;
53269;SDS011;39159;45.634;9.420;2023-05-15T12:35:31;4.68;;;4.28;;
53269;SDS011;39159;45.634;9.420;2023-05-15T12:37:59;7.38;;;4.80;;
53269;SDS011;39159;45.634;9.420;2023-05-15T12:40:26;6.80;;;4.72;;
53269;SDS011;39159;45.634;9.420;2023-05-15T12:42:52;3.55;;;2.53;;
53269;SDS011;39159;45.634;9.420;2023-05-15T12:45:19;3.15;;;2.75;;
53269;SDS011;39159;45.634;9.420;2023-05-15T12:47:47;3.97;;;3.08;;
53269;SDS011;39159;45.634;9.420;2023-05-15T12:50:18;7.88;;;2.70;;
53269;SDS011;39159;45.634;9.420;2023-05-15T12:52:46;3.00;;;2.70;;
53269;SDS011;39159;45.634;9.420;2023-05-15T12:55:17;4.82;;;4.07;;
53269;SDS011;39159;45.634;9.420;2023-05-15T12:57:47;4.78;;;4.05;;
53269;SDS011;39159;45.634;9.420;2023-05-15T13:00:13;4.28;;;3.80;;
53269;SDS011;39159;45.634;9.420;2023-05-15T13:03:00;3.47;;;2.85;;
53269;SDS011;39159;45.634;9.420;2023-05-15T13:05:26;2.92;;;2.20;;
53269;SDS011;39159;45.634;9.420;2023-05-15T13:08:02;2.38;;;1.90;;
53269;SDS011;39159;45.634;9.420;2023-05-15T13:10:34;2.90;;;2.60;;
53269;SDS011;39159;45.634;9.420;2023-05-15T13:13:01;3.03;;;2.30;;
53269;SDS011;39159;45.634;9.420;2023-05-15T13:18:00;3.95;;;3.35;;
53269;SDS011;39159;45.634;9.420;2023-05-15T13:20:34;3.85;;;3.45;;
53269;SDS011;39159;45.634;9.420;2023-05-15T13:23:02;4.50;;;3.35;;
53269;SDS011;39159;45.634;9.420;2023-05-15T13:25:28;4.35;;;3.65;;
53269;SDS011;39159;45.634;9.420;2023-05-15T13:27:55;3.00;;;2.70;;
53269;SDS011;39159;45.634;9.420;2023-05-15T13:30:22;3.97;;;3.35;;
53269;SDS011;39159;45.634;9.420;2023-05-15T13:32:47;4.82;;;2.72;;
53269;SDS011;39159;45.634;9.420;2023-05-15T13:35:13;3.55;;;3.22;;
53269;SDS011;39159;45.634;9.420;2023-05-15T13:37:39;3.90;;;2.70;;
53269;SDS011;39159;45.634;9.420;2023-05-15T13:40:06;4.38;;;2.80;;
53269;SDS011;39159;45.634;9.420;2023-05-15T13:42:34;3.80;;;2.17;;
53269;SDS011;39159;45.634;9.420;2023-05-15T13:45:06;3.67;;;2.47;;
53269;SDS011;39159;45.634;9.420;2023-05-15T13:47:33;3.65;;;3.20;;
53269;SDS011;39159;45.634;9.420;2023-05-15T13:49:59;2.80;;;2.20;;
53269;SDS011;39159;45.634;9.420;2023-05-15T13:52:25;2.53;;;1.80;;
53269;SDS011;39159;45.634;9.420;2023-05-15T13:54:51;2.75;;;1.70;;
53269;SDS011;39159;45.634;9.420;2023-05-15T13:57:17;3.40;;;2.17;;
53269;SDS011;39159;45.634;9.420;2023-05-15T13:59:43;4.18;;;1.85;;
53269;SDS011;39159;45.634;9.420;2023-05-15T14:02:08;3.95;;;2.40;;
53269;SDS011;39159;45.634;9.420;2023-05-15T14:04:35;4.03;;;2.13;;
53269;SDS011;39159;45.634;9.420;2023-05-15T14:07:00;5.07;;;1.98;;
53269;SDS011;39159;45.634;9.420;2023-05-15T14:09:26;2.97;;;1.63;;
53269;SDS011;39159;45.634;9.420;2023-05-15T14:11:51;1.75;;;1.60;;
53269;SDS011;39159;45.634;9.420;2023-05-15T14:14:17;2.33;;;2.00;;
53269;SDS011;39159;45.634;9.420;2023-05-15T14:16:42;4.60;;;2.20;;
53269;SDS011;39159;45.634;9.420;2023-05-15T14:19:08;2.28;;;1.90;;
53269;SDS011;39159;45.634;9.420;2023-05-15T14:21:33;2.60;;;2.20;;
53269;SDS011;39159;45.634;9.420;2023-05-15T14:23:58;3.13;;;2.30;;
53269;SDS011;39159;45.634;9.420;2023-05-15T14:26:24;3.38;;;2.63;;
53269;SDS011;39159;45.634;9.420;2023-05-15T14:28:50;2.38;;;2.17;;
53269;SDS011;39159;45.634;9.420;2023-05-15T14:31:15;3.75;;;1.95;;
53269;SDS011;39159;45.634;9.420;2023-05-15T14:33:40;3.63;;;2.33;;
53269;SDS011;39159;45.634;9.420;2023-05-15T14:36:06;3.25;;;1.73;;
53269;SDS011;39159;45.634;9.420;2023-05-15T14:38:32;5.25;;;1.70;;
53269;SDS011;39159;45.634;9.420;2023-05-15T14:40:57;1.98;;;1.77;;
53269;SDS011;39159;45.634;9.420;2023-05-15T14:43:23;2.88;;;1.75;;
53269;SDS011;39159;45.634;9.420;2023-05-15T14:45:49;1.77;;;1.40;;
53269;SDS011;39159;45.634;9.420;2023-05-15T14:48:15;4.05;;;1.88;;
53269;SDS011;39159;45.634;9.420;2023-05-15T14:50:41;1.77;;;1.55;;
53269;SDS011;39159;45.634;9.420;2023-05-15T14:53:06;3.25;;;1.83;;
53269;SDS011;39159;45.634;9.420;2023-05-15T14:55:32;2.58;;;2.00;;
53269;SDS011;39159;45.634;9.420;2023-05-15T14:57:58;4.60;;;2.03;;
53269;SDS011;39159;45.634;9.420;2023-05-15T15:00:23;2.60;;;2.00;;
53269;SDS011;39159;45.634;9.420;2023-05-15T15:02:49;3.63;;;1.90;;
53269;SDS011;39159;45.634;9.420;2023-05-15T15:05:14;2.08;;;1.73;;
53269;SDS011;39159;45.634;9.420;2023-05-15T15:07:59;3.65;;;2.30;;
53269;SDS011;39159;45.634;9.420;2023-05-15T15:10:26;3.08;;;2.28;;
53269;SDS011;39159;45.634;9.420;2023-05-15T15:12:52;3.08;;;2.40;;
53269;SDS011;39159;45.634;9.420;2023-05-15T15:15:18;6.35;;;2.63;;
53269;SDS011;39159;45.634;9.420;2023-05-15T15:17:44;2.95;;;1.85;;